createdAt,value
2022-12-05T00:01:25.896Z,25.77
2022-12-05T00:03:55.841Z,31.77
2022-12-05T00:06:23.746Z,26.37
2022-12-05T00:08:51.094Z,33.80
2022-12-05T00:11:21.738Z,28.90
2022-12-05T00:13:49.992Z,26.70
2022-12-05T00:16:19.828Z,28.17
2022-12-05T00:18:47.294Z,38.60
2022-12-05T00:21:17.536Z,30.83
2022-12-05T00:23:44.952Z,31.43
2022-12-05T00:26:12.605Z,30.47
2022-12-05T00:28:40.235Z,41.63
2022-12-05T00:31:13.713Z,34.00
2022-12-05T00:33:40.838Z,31.47
2022-12-05T00:36:11.842Z,32.27
2022-12-05T00:38:39.246Z,27.03
2022-12-05T00:41:14.596Z,28.47
2022-12-05T00:43:41.881Z,26.93
2022-12-05T00:46:13.227Z,26.43
2022-12-05T00:48:40.901Z,23.93
2022-12-05T00:51:09.880Z,24.43
2022-12-05T00:53:37.216Z,25.43
2022-12-05T00:56:06.689Z,27.40
2022-12-05T00:58:34.309Z,24.03
2022-12-05T01:01:35.382Z,27.53
2022-12-05T01:04:10.468Z,20.90
2022-12-05T01:06:38.347Z,23.63
2022-12-05T01:09:06.654Z,18.97
2022-12-05T01:11:39.309Z,26.53
2022-12-05T01:14:09.362Z,23.53
2022-12-05T01:16:38.173Z,20.00
2022-12-05T01:19:08.680Z,20.57
2022-12-05T01:21:35.677Z,17.40
2022-12-05T01:24:02.554Z,15.90
2022-12-05T01:26:29.481Z,17.50
2022-12-05T01:28:56.840Z,17.30
2022-12-05T01:31:26.652Z,18.03
2022-12-05T01:33:55.579Z,19.70
2022-12-05T01:36:23.911Z,17.00
2022-12-05T01:38:51.169Z,20.30
2022-12-05T01:41:21.519Z,18.73
2022-12-05T01:44:01.946Z,18.57
2022-12-05T01:46:34.342Z,24.63
2022-12-05T01:49:15.590Z,18.17
2022-12-05T01:51:46.567Z,17.17
2022-12-05T01:54:15.103Z,16.33
2022-12-05T01:56:45.976Z,22.60
2022-12-05T01:59:14.206Z,22.23
2022-12-05T02:01:41.566Z,19.27
2022-12-05T02:04:09.916Z,22.57
2022-12-05T02:06:37.098Z,17.37
2022-12-05T02:09:05.068Z,17.93
2022-12-05T02:11:33.409Z,17.57
2022-12-05T02:14:25.013Z,18.37
2022-12-05T02:17:13.882Z,19.43
2022-12-05T02:20:28.569Z,16.63
2022-12-05T02:23:07.166Z,14.33
2022-12-05T02:25:51.913Z,15.37
2022-12-05T02:29:03.305Z,15.80
2022-12-05T02:31:52.505Z,13.63
2022-12-05T02:34:40.487Z,14.73
2022-12-05T02:37:18.272Z,15.57
2022-12-05T02:40:05.238Z,14.77
2022-12-05T02:43:22.837Z,16.27
2022-12-05T02:45:54.448Z,14.37
2022-12-05T02:48:22.669Z,16.57
2022-12-05T02:50:52.009Z,15.53
2022-12-05T02:53:21.939Z,13.43
2022-12-05T02:55:49.864Z,16.50
2022-12-05T02:58:22.850Z,19.23
2022-12-05T03:00:54.103Z,16.17
2022-12-05T03:03:23.375Z,15.80
2022-12-05T03:06:07.648Z,13.63
2022-12-05T03:08:43.020Z,15.33
2022-12-05T03:11:10.176Z,18.43
2022-12-05T03:13:52.081Z,15.17
2022-12-05T03:16:29.395Z,12.93
2022-12-05T03:19:01.417Z,15.90
2022-12-05T03:21:35.939Z,15.87
2022-12-05T03:24:10.050Z,16.20
2022-12-05T03:27:06.422Z,12.97
2022-12-05T03:29:49.518Z,15.23
2022-12-05T03:32:48.471Z,16.63
2022-12-05T03:35:50.574Z,14.07
2022-12-05T03:38:31.514Z,12.23
2022-12-05T03:41:19.718Z,14.73
2022-12-05T03:44:06.016Z,18.77
2022-12-05T03:46:41.041Z,15.57
2022-12-05T03:49:34.106Z,14.30
2022-12-05T03:52:13.876Z,14.60
2022-12-05T03:54:51.935Z,14.77
2022-12-05T03:57:33.571Z,14.40
2022-12-05T04:00:07.053Z,12.27
2022-12-05T04:02:45.693Z,13.70
2022-12-05T04:05:26.835Z,15.10
2022-12-05T04:08:00.382Z,13.33
2022-12-05T04:10:31.683Z,12.53
2022-12-05T04:13:17.848Z,15.70
2022-12-05T04:16:15.115Z,15.60
2022-12-05T04:18:47.781Z,14.07
2022-12-05T04:21:36.796Z,17.37
2022-12-05T04:24:23.311Z,17.47
2022-12-05T04:27:01.930Z,16.67
2022-12-05T04:29:34.721Z,16.53
2022-12-05T04:32:06.672Z,13.83
2022-12-05T04:34:35.215Z,15.30
2022-12-05T04:37:13.455Z,14.97
2022-12-05T04:39:48.771Z,15.80
2022-12-05T04:42:22.220Z,14.57
2022-12-05T04:45:04.392Z,13.83
2022-12-05T04:47:37.061Z,14.87
2022-12-05T04:50:07.921Z,16.30
2022-12-05T04:52:36.432Z,16.23
2022-12-05T04:55:26.221Z,15.33
2022-12-05T04:58:03.635Z,18.00
2022-12-05T05:00:32.096Z,13.63
2022-12-05T05:03:11.424Z,15.67
2022-12-05T05:05:39.483Z,17.07
2022-12-05T05:08:17.231Z,16.17
2022-12-05T05:11:13.293Z,16.90
2022-12-05T05:13:40.494Z,16.13
2022-12-05T05:16:07.890Z,14.93
2022-12-05T05:18:34.846Z,17.00
2022-12-05T05:21:01.800Z,17.77
2022-12-05T05:23:28.670Z,15.97
2022-12-05T05:25:56.744Z,14.37
2022-12-05T05:28:23.972Z,14.47
2022-12-05T05:30:51.855Z,15.30
2022-12-05T05:33:19.102Z,16.80
2022-12-05T05:35:46.505Z,16.10
2022-12-05T05:38:13.405Z,16.93
2022-12-05T05:40:40.447Z,15.33
2022-12-05T05:43:07.264Z,15.87
2022-12-05T05:45:34.392Z,17.67
2022-12-05T05:48:01.381Z,19.00
2022-12-05T05:50:28.744Z,14.90
2022-12-05T05:52:55.764Z,21.40
2022-12-05T05:55:22.669Z,19.77
2022-12-05T05:57:49.533Z,21.90
2022-12-05T06:00:16.957Z,24.23
2022-12-05T06:02:44.078Z,22.17
2022-12-05T06:05:11.215Z,24.27
2022-12-05T06:07:38.168Z,18.73
2022-12-05T06:10:05.702Z,22.90
2022-12-05T06:12:32.549Z,17.57
2022-12-05T06:14:59.639Z,18.67
2022-12-05T06:17:26.462Z,25.17
2022-12-05T06:19:53.537Z,18.63
2022-12-05T06:22:20.474Z,20.07
2022-12-05T06:24:47.434Z,15.83
2022-12-05T06:27:14.582Z,16.47
2022-12-05T06:29:41.629Z,12.93
2022-12-05T06:32:09.201Z,15.57
2022-12-05T06:34:36.473Z,13.97
2022-12-05T06:37:04.117Z,11.63
2022-12-05T06:39:31.116Z,15.50
2022-12-05T06:41:58.468Z,14.70
2022-12-05T06:44:27.137Z,11.33
2022-12-05T06:46:54.845Z,12.40
2022-12-05T06:49:30.718Z,10.03
2022-12-05T06:51:59.704Z,8.80
2022-12-05T06:54:26.718Z,8.57
2022-12-05T06:56:53.593Z,8.60
2022-12-05T06:59:20.700Z,9.90
2022-12-05T07:01:47.698Z,11.60
2022-12-05T07:04:17.946Z,10.33
2022-12-05T07:06:50.243Z,9.23
2022-12-05T07:09:19.731Z,7.83
2022-12-05T07:11:49.121Z,9.73
2022-12-05T07:14:38.908Z,9.27
2022-12-05T07:17:03.954Z,9.87
2022-12-05T07:19:31.119Z,8.20
2022-12-05T07:21:57.975Z,9.10
2022-12-05T07:24:24.925Z,8.80
2022-12-05T07:26:51.827Z,10.47
2022-12-05T07:29:19.049Z,7.27
2022-12-05T07:31:46.252Z,8.83
2022-12-05T07:34:13.265Z,6.87
2022-12-05T07:36:40.209Z,8.17
2022-12-05T07:39:07.133Z,6.87
2022-12-05T07:41:35.066Z,6.93
2022-12-05T07:44:02.243Z,6.67
2022-12-05T07:46:29.568Z,9.80
2022-12-05T07:48:56.806Z,7.73
2022-12-05T07:51:24.073Z,5.73
2022-12-05T07:53:51.273Z,10.07
2022-12-05T07:56:18.986Z,5.90
2022-12-05T07:58:47.850Z,7.87
2022-12-05T08:01:23.595Z,10.57
2022-12-05T08:03:53.132Z,10.77
2022-12-05T08:06:22.332Z,10.20
2022-12-05T08:08:50.139Z,12.60
2022-12-05T08:11:23.051Z,9.73
2022-12-05T08:13:50.576Z,9.10
2022-12-05T08:16:20.862Z,8.77
2022-12-05T08:18:47.958Z,9.80
2022-12-05T08:21:20.196Z,7.77
2022-12-05T08:23:47.435Z,12.47
2022-12-05T08:26:17.651Z,5.43
2022-12-05T08:28:45.371Z,11.33
2022-12-05T08:31:17.159Z,7.57
2022-12-05T08:33:44.984Z,9.60
2022-12-05T08:36:14.033Z,5.47
2022-12-05T08:38:41.376Z,8.27
2022-12-05T08:41:11.081Z,11.73
2022-12-05T08:43:38.511Z,17.57
2022-12-05T08:46:05.900Z,18.00
2022-12-05T08:48:34.140Z,5.77
2022-12-05T08:51:09.220Z,4.50
2022-12-05T08:53:44.403Z,7.53
2022-12-05T08:56:12.512Z,10.67
2022-12-05T08:58:40.257Z,9.57
2022-12-05T09:01:19.337Z,6.97
2022-12-05T09:03:48.245Z,9.50
2022-12-05T09:06:18.209Z,9.20
2022-12-05T09:08:45.662Z,8.27
2022-12-05T09:11:24.147Z,9.77
2022-12-05T09:13:52.571Z,10.97
2022-12-05T09:16:22.644Z,11.10
2022-12-05T09:18:50.913Z,12.10
2022-12-05T09:21:27.087Z,10.33
2022-12-05T09:23:54.613Z,11.07
2022-12-05T09:26:27.212Z,12.37
2022-12-05T09:28:54.234Z,15.17
2022-12-05T09:31:25.262Z,12.67
2022-12-05T09:33:52.603Z,14.23
2022-12-05T09:36:25.844Z,14.73
2022-12-05T09:38:53.987Z,12.77
2022-12-05T09:41:48.730Z,14.33
2022-12-05T09:44:43.620Z,13.67
2022-12-05T09:47:29.418Z,13.90
2022-12-05T09:50:11.955Z,12.60
2022-12-05T09:52:42.217Z,15.10
2022-12-05T09:55:16.938Z,17.70
2022-12-05T09:57:54.084Z,14.10
2022-12-05T10:00:21.257Z,12.63
2022-12-05T10:02:59.733Z,12.57
2022-12-05T10:05:49.172Z,13.40
2022-12-05T10:08:47.205Z,15.33
2022-12-05T10:11:44.071Z,12.97
2022-12-05T10:14:26.481Z,11.17
2022-12-05T10:16:58.226Z,11.83
2022-12-05T10:19:42.859Z,11.73
2022-12-05T10:22:27.987Z,10.00
2022-12-05T10:24:59.963Z,11.93
2022-12-05T10:27:41.121Z,10.83
2022-12-05T10:30:21.480Z,60.27
2022-12-05T10:32:57.629Z,21.53
2022-12-05T10:35:28.268Z,10.73
2022-12-05T10:38:03.432Z,10.17
2022-12-05T10:40:43.490Z,8.40
2022-12-05T10:43:16.565Z,11.30
2022-12-05T10:45:46.510Z,12.03
2022-12-05T10:48:16.156Z,8.70
2022-12-05T10:50:45.205Z,7.67
2022-12-05T10:53:40.482Z,10.93
2022-12-05T10:56:42.507Z,8.47
2022-12-05T10:59:12.748Z,9.37
2022-12-05T11:01:52.513Z,10.73
2022-12-05T11:04:32.204Z,10.40
2022-12-05T11:07:02.060Z,9.07
2022-12-05T11:09:32.350Z,8.67
2022-12-05T11:12:22.179Z,8.67
2022-12-05T11:15:24.915Z,9.60
2022-12-05T11:17:57.632Z,11.00
2022-12-05T11:20:25.178Z,10.30
2022-12-05T11:22:54.626Z,9.60
2022-12-05T11:25:36.378Z,11.87
2022-12-05T11:28:31.293Z,10.30
2022-12-05T11:31:25.517Z,10.10
2022-12-05T11:34:17.860Z,14.00
2022-12-05T11:36:50.839Z,12.40
2022-12-05T11:39:18.001Z,10.80
2022-12-05T11:42:05.283Z,14.97
2022-12-05T11:44:57.095Z,13.33
2022-12-05T11:47:33.429Z,8.37
2022-12-05T11:50:27.508Z,7.83
2022-12-05T11:53:29.963Z,9.70
2022-12-05T11:56:00.037Z,9.20
2022-12-05T11:58:33.123Z,14.07
2022-12-05T12:01:07.435Z,10.43
2022-12-05T12:04:12.657Z,8.73
2022-12-05T12:06:54.619Z,10.07
2022-12-05T12:09:21.531Z,8.80
2022-12-05T12:12:24.326Z,8.50
2022-12-05T12:15:30.097Z,7.80
2022-12-05T12:18:09.126Z,9.57
2022-12-05T12:20:57.984Z,8.27
2022-12-05T12:23:51.718Z,7.63
2022-12-05T12:26:43.611Z,6.70
2022-12-05T12:29:35.200Z,6.87
2022-12-05T12:32:16.623Z,5.93
2022-12-05T12:35:16.816Z,7.43
2022-12-05T12:38:14.482Z,6.10
2022-12-05T12:40:58.253Z,6.17
2022-12-05T12:43:59.219Z,7.13
2022-12-05T12:46:33.107Z,7.40
2022-12-05T12:49:29.440Z,8.03
2022-12-05T12:52:04.565Z,10.20
2022-12-05T12:55:08.799Z,8.23
2022-12-05T12:57:54.556Z,5.47
2022-12-05T13:00:47.953Z,7.60
2022-12-05T13:03:24.112Z,6.70
2022-12-05T13:05:55.732Z,7.87
2022-12-05T13:08:34.390Z,8.53
2022-12-05T13:11:07.153Z,7.87
2022-12-05T13:13:43.011Z,11.60
2022-12-05T13:16:18.339Z,12.77
2022-12-05T13:18:47.189Z,8.67
2022-12-05T13:21:14.911Z,9.60
2022-12-05T13:23:48.951Z,11.67
2022-12-05T13:26:18.000Z,7.47
2022-12-05T13:28:53.461Z,6.80
2022-12-05T13:31:42.137Z,8.97
2022-12-05T13:34:39.631Z,11.90
2022-12-05T13:37:31.363Z,6.60
2022-12-05T13:40:17.543Z,7.07
2022-12-05T13:42:44.678Z,7.13
2022-12-05T13:45:18.127Z,22.83
2022-12-05T13:48:00.403Z,6.90
2022-12-05T13:50:33.162Z,6.27
2022-12-05T13:53:21.327Z,6.10
2022-12-05T13:55:56.912Z,7.07
2022-12-05T13:58:23.993Z,10.10
2022-12-05T14:00:52.224Z,5.40
2022-12-05T14:03:34.489Z,4.83
2022-12-05T14:06:01.611Z,4.60
2022-12-05T14:08:31.638Z,5.10
2022-12-05T14:10:58.679Z,3.40
2022-12-05T14:13:26.885Z,3.03
2022-12-05T14:15:55.246Z,4.47
2022-12-05T14:18:34.162Z,3.13
2022-12-05T14:21:10.355Z,2.93
2022-12-05T14:24:11.034Z,3.03
2022-12-05T14:27:16.748Z,16.77
2022-12-05T14:29:46.575Z,4.17
2022-12-05T14:32:33.998Z,3.27
2022-12-05T14:35:00.998Z,2.83
2022-12-05T14:37:30.760Z,5.80
2022-12-05T14:40:00.779Z,3.37
2022-12-05T14:42:55.694Z,1.97
2022-12-05T14:45:41.624Z,2.43
2022-12-05T14:48:14.760Z,5.40
2022-12-05T14:50:41.849Z,4.10
2022-12-05T14:56:53.299Z,19.30
2022-12-05T15:00:07.055Z,7.17
2022-12-05T15:02:40.387Z,5.07
2022-12-05T15:05:32.143Z,3.53
2022-12-05T15:08:01.638Z,12.07
2022-12-05T15:10:39.416Z,16.87
2022-12-05T15:13:21.391Z,8.13
2022-12-05T15:16:01.344Z,6.00
2022-12-05T15:18:51.876Z,7.53
2022-12-05T15:21:39.345Z,5.63
2022-12-05T15:24:13.599Z,4.17
2022-12-05T15:26:49.830Z,1.70
2022-12-05T15:29:25.750Z,3.70
2022-12-05T15:32:08.335Z,4.37
2022-12-05T15:34:56.691Z,22.27
2022-12-05T15:37:35.221Z,11.80
2022-12-05T15:40:08.152Z,5.27
2022-12-05T15:42:41.376Z,5.73
2022-12-05T15:45:14.785Z,2.60
2022-12-05T15:47:46.636Z,2.10
2022-12-05T15:50:44.022Z,3.30
2022-12-05T15:53:23.217Z,2.10
2022-12-05T15:56:13.540Z,5.40
2022-12-05T15:59:03.258Z,5.03
2022-12-05T16:01:31.290Z,2.13
2022-12-05T16:04:13.951Z,2.63
2022-12-05T16:06:48.750Z,2.93
2022-12-05T16:09:21.497Z,4.93
2022-12-05T16:12:07.297Z,4.40
2022-12-05T16:17:29.070Z,6.80
2022-12-05T16:20:11.890Z,5.87
2022-12-05T16:22:50.877Z,14.80
2022-12-05T16:25:23.519Z,5.83
2022-12-05T16:28:22.287Z,10.00
2022-12-05T16:31:03.896Z,14.03
2022-12-05T16:33:32.200Z,10.13
2022-12-05T16:36:13.046Z,5.73
2022-12-05T16:38:43.275Z,3.63
2022-12-05T16:41:12.330Z,5.50
2022-12-05T16:43:39.240Z,5.13
2022-12-05T16:46:15.382Z,6.93
2022-12-05T16:48:48.673Z,5.30
2022-12-05T16:51:22.040Z,4.40
2022-12-05T16:53:51.105Z,8.93
2022-12-05T16:56:24.459Z,5.27
2022-12-05T16:58:51.912Z,4.80
2022-12-05T17:01:24.657Z,4.73
2022-12-05T17:03:55.953Z,4.13
2022-12-05T17:06:24.745Z,5.20
2022-12-05T17:08:53.554Z,5.63
2022-12-05T17:11:26.959Z,5.33
2022-12-05T17:13:55.942Z,4.87
2022-12-05T17:16:23.558Z,5.40
2022-12-05T17:18:50.588Z,6.10
2022-12-05T17:21:20.239Z,23.77
2022-12-05T17:23:48.428Z,36.40
2022-12-05T17:26:21.220Z,43.23
2022-12-05T17:28:50.028Z,35.57
2022-12-05T17:31:20.707Z,33.47
2022-12-05T17:33:48.928Z,36.17
2022-12-05T17:36:16.500Z,28.23
2022-12-05T17:38:44.499Z,15.27
2022-12-05T17:41:19.955Z,6.20
2022-12-05T17:43:47.630Z,11.27
2022-12-05T17:46:20.988Z,10.17
2022-12-05T17:48:51.439Z,12.63
2022-12-05T17:51:20.195Z,16.23
2022-12-05T17:53:48.201Z,26.00
2022-12-05T17:56:16.098Z,10.70
2022-12-05T17:58:43.290Z,8.40
2022-12-05T18:01:20.652Z,7.13
2022-12-05T18:03:48.836Z,7.90
2022-12-05T18:06:16.846Z,10.13
2022-12-05T18:08:45.330Z,18.50
2022-12-05T18:11:14.107Z,15.60
2022-12-05T18:13:41.303Z,6.97
2022-12-05T18:16:09.026Z,6.97
2022-12-05T18:18:36.133Z,14.83
2022-12-05T18:21:08.478Z,18.53
2022-12-05T18:23:37.605Z,10.73
2022-12-05T18:26:06.910Z,14.77
2022-12-05T18:28:39.148Z,11.80
2022-12-05T18:31:08.461Z,15.97
2022-12-05T18:33:35.580Z,14.70
2022-12-05T18:36:08.153Z,22.93
2022-12-05T18:38:35.750Z,13.53
2022-12-05T18:41:04.180Z,11.37
2022-12-05T18:43:31.861Z,12.47
2022-12-05T18:46:00.813Z,10.23
2022-12-05T18:48:47.829Z,13.40
2022-12-05T18:51:21.087Z,17.93
2022-12-05T18:53:54.613Z,15.50
2022-12-05T18:56:27.640Z,27.77
2022-12-05T18:59:02.495Z,22.80
2022-12-05T19:01:30.825Z,19.03
2022-12-05T19:03:58.980Z,21.40
2022-12-05T19:06:29.734Z,17.77
2022-12-05T19:08:58.666Z,6.87
2022-12-05T19:11:27.274Z,12.87
2022-12-05T19:13:55.790Z,10.47
2022-12-05T19:16:22.883Z,15.03
2022-12-05T19:18:55.428Z,13.07
2022-12-05T19:21:23.820Z,15.33
2022-12-05T19:23:50.851Z,7.90
2022-12-05T19:26:17.953Z,8.30
2022-12-05T19:28:44.932Z,6.37
2022-12-05T19:31:15.360Z,4.73
2022-12-05T19:33:45.244Z,9.53
2022-12-05T19:36:31.947Z,7.27
2022-12-05T19:39:06.976Z,8.47
2022-12-05T19:41:34.014Z,13.93
2022-12-05T19:44:01.947Z,24.27
2022-12-05T19:46:30.736Z,24.83
2022-12-05T19:49:00.155Z,26.30
2022-12-05T19:51:27.705Z,14.17
2022-12-05T19:53:55.722Z,15.10
2022-12-05T19:56:24.998Z,10.93
2022-12-05T19:58:53.781Z,17.40
2022-12-05T20:01:40.343Z,13.70
2022-12-05T20:04:10.514Z,11.93
2022-12-05T20:06:40.532Z,7.23
2022-12-05T20:09:08.834Z,6.97
2022-12-05T20:11:39.262Z,9.57
2022-12-05T20:14:06.664Z,8.97
2022-12-05T20:16:33.984Z,8.83
2022-12-05T20:19:01.297Z,8.30
2022-12-05T20:21:31.449Z,10.70
2022-12-05T20:24:00.779Z,4.57
2022-12-05T20:26:33.827Z,4.43
2022-12-05T20:29:01.516Z,9.40
2022-12-05T20:31:30.849Z,11.33
2022-12-05T20:33:58.337Z,8.23
2022-12-05T20:36:27.900Z,9.00
2022-12-05T20:39:00.380Z,9.97
2022-12-05T20:41:28.026Z,10.30
2022-12-05T20:44:02.477Z,8.30
2022-12-05T20:46:30.353Z,7.53
2022-12-05T20:48:57.762Z,9.00
2022-12-05T20:51:30.932Z,9.07
2022-12-05T20:53:59.284Z,7.43
2022-12-05T20:56:29.104Z,7.80
2022-12-05T20:58:58.196Z,8.40
2022-12-05T21:01:26.920Z,8.47
2022-12-05T21:03:54.911Z,9.23
2022-12-05T21:06:30.787Z,9.47
2022-12-05T21:08:58.312Z,9.10
2022-12-05T21:11:26.772Z,13.40
2022-12-05T21:13:58.356Z,22.70
2022-12-05T21:16:26.160Z,14.40
2022-12-05T21:18:53.448Z,12.47
2022-12-05T21:21:24.003Z,11.67
2022-12-05T21:23:59.840Z,14.50
2022-12-05T21:26:29.230Z,17.40
2022-12-05T21:28:56.924Z,16.30
2022-12-05T21:31:29.980Z,13.40
2022-12-05T21:34:02.460Z,11.10
2022-12-05T21:36:31.570Z,11.07
2022-12-05T21:38:58.710Z,13.27
2022-12-05T21:41:26.167Z,12.93
2022-12-05T21:43:55.414Z,8.80
2022-12-05T21:46:24.194Z,12.73
2022-12-05T21:48:51.450Z,26.70
2022-12-05T21:51:18.491Z,24.00
2022-12-05T21:53:45.451Z,14.13
2022-12-05T21:56:15.785Z,9.90
2022-12-05T21:58:44.462Z,8.20
2022-12-05T22:01:25.064Z,7.40
2022-12-05T22:03:59.395Z,9.27
2022-12-05T22:06:26.604Z,10.80
2022-12-05T22:08:55.109Z,11.57
2022-12-05T22:11:24.049Z,9.93
2022-12-05T22:13:52.012Z,8.83
2022-12-05T22:16:19.832Z,11.70
2022-12-05T22:18:47.258Z,13.93
2022-12-05T22:21:16.118Z,11.27
2022-12-05T22:23:43.166Z,16.33
2022-12-05T22:26:13.580Z,14.07
2022-12-05T22:28:41.265Z,14.43
2022-12-05T22:31:11.578Z,12.20
2022-12-05T22:33:39.231Z,12.47
2022-12-05T22:36:09.998Z,8.73
2022-12-05T22:38:40.291Z,8.70
2022-12-05T22:41:11.200Z,11.47
2022-12-05T22:43:38.306Z,9.63
2022-12-05T22:46:17.951Z,9.27
2022-12-05T22:48:45.730Z,9.10
2022-12-05T22:51:13.660Z,8.03
2022-12-05T22:53:40.797Z,9.13
2022-12-05T22:56:11.101Z,11.47
2022-12-05T22:58:39.127Z,11.17
2022-12-05T23:01:18.133Z,7.37
2022-12-05T23:03:47.130Z,7.13
2022-12-05T23:06:16.145Z,6.93
2022-12-05T23:08:44.928Z,8.40
2022-12-05T23:11:12.293Z,6.97
2022-12-05T23:13:39.820Z,7.40
2022-12-05T23:16:26.493Z,7.67
2022-12-05T23:18:59.174Z,7.63
2022-12-05T23:21:28.510Z,7.43
2022-12-05T23:23:57.879Z,9.27
2022-12-05T23:26:28.272Z,7.57
2022-12-05T23:28:56.045Z,9.00
2022-12-05T23:31:23.853Z,11.07
2022-12-05T23:33:51.849Z,9.67
2022-12-05T23:36:19.838Z,8.90
2022-12-05T23:38:48.094Z,8.87
2022-12-05T23:41:17.648Z,10.43
2022-12-05T23:43:45.456Z,10.70
2022-12-05T23:46:14.001Z,10.53
2022-12-05T23:48:41.268Z,11.57
2022-12-05T23:51:14.877Z,13.07
2022-12-05T23:53:44.012Z,10.03
2022-12-05T23:56:14.432Z,11.63
2022-12-05T23:58:41.937Z,12.30
